Time;durP1;ratioP1;P1;durP2;ratioP2;P2;SDS_P1;SDS_P2;PMS_P1;PMS_P2;Temp;Humidity;BMP_temperature;BMP_pressure;BME280_temperature;BME280_humidity;BME280_pressure;Samples;Min_cycle;Max_cycle;Signal;HPM_P1;HPM_P2
2021/12/24 00:00:27;;;;;;;50.40;20.98;;;;;;;7.77;91.34;100495.66;4970165;28;20056;-60
2021/12/24 00:02:54;;;;;;;60.63;22.00;;;;;;;7.77;91.53;100495.66;4987763;28;20030;-60
2021/12/24 00:05:20;;;;;;;52.60;21.02;;;;;;;7.81;91.84;100497.31;4986611;28;20032;-61
2021/12/24 00:07:46;;;;;;;48.65;21.00;;;;;;;7.89;91.64;100496.25;4986224;28;20032;-59
2021/12/24 00:10:11;;;;;;;38.15;19.75;;;;;;;7.89;91.66;100488.38;4970799;28;20080;-60
2021/12/24 00:12:41;;;;;;;49.35;20.13;;;;;;;7.90;91.79;100484.84;4987088;28;20030;-59
2021/12/24 00:15:23;;;;;;;44.58;19.80;;;;;;;7.91;91.48;100497.91;4970606;28;20084;-59
2021/12/24 00:17:49;;;;;;;53.05;21.45;;;;;;;7.97;91.79;100492.50;4986257;28;20450;-60
2021/12/24 00:36:07;;;;;;;39.55;20.83;;;;;;;8.21;91.80;100473.44;4993092;28;20107;-61
2021/12/24 00:38:32;;;;;;;41.85;20.60;;;;;;;8.26;91.66;100482.06;5006722;28;20476;-65
2021/12/24 00:40:58;;;;;;;45.92;20.80;;;;;;;8.30;91.69;100475.81;4988404;28;20026;-61
2021/12/24 00:43:24;;;;;;;50.97;22.67;;;;;;;8.33;91.93;100477.47;5005253;28;20026;-61
2021/12/24 00:45:49;;;;;;;45.10;23.25;;;;;;;8.40;91.60;100488.66;4969592;28;20034;-63
2021/12/24 00:48:17;;;;;;;48.60;22.33;;;;;;;8.44;91.50;100485.91;4986670;28;20021;-59
2021/12/24 00:56:01;;;;;;;50.50;22.35;;;;;;;8.59;91.31;100484.59;4987188;28;20045;-60
2021/12/24 00:58:26;;;;;;;46.38;20.77;;;;;;;8.67;90.99;100488.75;4980973;28;20504;-63
2021/12/24 01:00:51;;;;;;;43.72;20.35;;;;;;;8.72;90.78;100484.19;4972635;28;20034;-60
2021/12/24 01:03:17;;;;;;;45.10;19.67;;;;;;;8.75;90.66;100484.09;4993115;28;20053;-61
2021/12/24 01:05:43;;;;;;;49.08;18.58;;;;;;;8.79;90.37;100480.44;4968318;28;20031;-61
2021/12/24 01:08:10;;;;;;;49.53;17.55;;;;;;;8.85;90.27;100485.50;4966712;28;20046;-61
2021/12/24 01:10:40;;;;;;;38.00;16.90;;;;;;;8.84;90.13;100475.91;4970507;28;20041;-61
2021/12/24 01:13:06;;;;;;;51.05;18.33;;;;;;;8.88;90.45;100481.91;4987060;28;20388;-61
2021/12/24 01:15:33;;;;;;;46.53;16.77;;;;;;;8.92;90.00;100493.19;4986394;28;20030;-61
2021/12/24 01:21:09;;;;;;;35.08;16.77;;;;;;;8.95;89.41;100482.59;4986715;28;20530;-61
2021/12/24 01:23:50;;;;;;;40.47;16.85;;;;;;;8.94;89.94;100486.97;5006367;28;20045;-61
2021/12/24 01:26:23;;;;;;;42.35;15.13;;;;;;;8.96;89.74;100492.19;5006358;28;20018;-59
2021/12/24 01:40:07;;;;;;;38.03;13.57;;;;;;;9.03;89.04;100485.81;4980056;28;21054;-61
2021/12/24 01:42:42;;;;;;;41.15;16.05;;;;;;;9.00;88.95;100499.03;4982324;28;20374;-61
2021/12/24 01:45:29;;;;;;;31.77;14.63;;;;;;;9.03;88.83;100479.72;4960457;28;20417;-63
2021/12/24 01:47:57;;;;;;;31.48;13.77;;;;;;;9.03;88.64;100482.34;4976012;28;20033;-63
2021/12/24 01:50:24;;;;;;;38.25;13.20;;;;;;;9.03;88.32;100500.75;4989833;28;20117;-61
2021/12/24 01:52:51;;;;;;;28.33;11.13;;;;;;;9.04;88.24;100497.19;4989002;28;20033;-61
2021/12/24 01:55:17;;;;;;;33.10;12.50;;;;;;;9.03;87.83;100493.69;4956198;28;20110;-59
2021/12/24 01:57:43;;;;;;;31.30;11.07;;;;;;;9.07;87.62;100482.19;4988464;28;20034;-61
2021/12/24 02:00:13;;;;;;;24.80;10.68;;;;;;;9.07;87.24;100497.09;4971225;28;20057;-60
2021/12/24 02:02:38;;;;;;;;;;;;;;;9.04;87.42;100511.22;4977849;28;20038;-60
2021/12/24 02:05:04;;;;;;;25.80;10.30;;;;;;;9.05;87.17;100496.28;4979763;28;20572;-61
2021/12/24 02:07:29;;;;;;;30.23;9.65;;;;;;;9.04;87.04;100495.44;4970348;28;20031;-63
2021/12/24 02:09:54;;;;;;;30.05;10.30;;;;;;;8.98;87.42;100493.84;4975100;28;20678;-61
2021/12/24 02:12:22;;;;;;;28.08;8.80;;;;;;;9.03;87.29;100503.38;4989179;28;20037;-60
2021/12/24 02:14:51;;;;;;;23.15;9.05;;;;;;;8.98;87.19;100485.97;4971707;28;20026;-61
2021/12/24 02:17:38;;;;;;;22.52;8.80;;;;;;;8.98;86.81;100493.84;4989182;28;20031;-60
2021/12/24 02:28:24;;;;;;;25.50;9.70;;;;;;;8.92;87.14;100495.81;4989071;28;20088;-61
2021/12/24 02:30:49;;;;;;;26.80;8.50;;;;;;;8.90;87.20;100505.50;4989400;28;20472;-60
2021/12/24 02:33:15;;;;;;;30.00;8.68;;;;;;;8.92;86.97;100503.72;4983140;28;20027;-60
2021/12/24 02:35:41;;;;;;;24.92;9.00;;;;;;;8.92;87.14;100488.81;4969389;28;20022;-61
2021/12/24 02:38:07;;;;;;;26.30;10.35;;;;;;;8.89;87.25;100504.69;4987707;28;20548;-60
2021/12/24 02:40:33;;;;;;;24.90;9.93;;;;;;;8.95;87.00;100493.97;4989293;28;20464;-61
2021/12/24 02:42:59;;;;;;;35.30;11.32;;;;;;;8.97;87.00;100496.53;4987630;28;20026;-61
2021/12/24 02:45:27;;;;;;;31.42;10.40;;;;;;;9.00;86.68;100498.22;4960384;28;20057;-60
2021/12/24 02:56:02;;;;;;;25.88;8.65;;;;;;;8.92;86.57;100487.94;4992936;28;20187;-61
2021/12/24 02:58:37;;;;;;;26.55;8.60;;;;;;;8.94;86.14;100488.75;5007561;28;20088;-60
2021/12/24 03:01:02;;;;;;;22.17;8.70;;;;;;;8.91;86.16;100489.69;5006467;28;20124;-60
2021/12/24 03:03:27;;;;;;;27.60;7.97;;;;;;;8.93;86.14;100493.16;5000752;28;20122;-60
2021/12/24 03:05:53;;;;;;;23.90;8.25;;;;;;;8.94;85.97;100502.75;4982389;28;20034;-60
2021/12/24 03:08:18;;;;;;;24.52;7.97;;;;;;;8.96;85.58;100493.06;4988764;28;20061;-60
2021/12/24 03:10:43;;;;;;;26.48;8.45;;;;;;;8.96;85.65;100498.31;4988575;28;20109;-60
2021/12/24 03:13:09;;;;;;;31.05;8.32;;;;;;;8.95;85.79;100491.34;4971119;28;20022;-62
2021/12/24 03:15:34;;;;;;;17.48;8.13;;;;;;;8.93;85.51;100480.00;5004899;28;20499;-61
2021/12/24 03:18:00;;;;;;;19.35;8.48;;;;;;;8.97;85.80;100489.50;5007783;28;20450;-60
2021/12/24 03:20:28;;;;;;;21.60;7.57;;;;;;;8.98;85.51;100485.97;4989107;28;20030;-62
2021/12/24 03:23:21;;;;;;;23.42;8.70;;;;;;;8.92;85.80;100488.81;4990817;28;20076;-62
2021/12/24 03:25:47;;;;;;;16.90;7.35;;;;;;;8.94;85.68;100488.75;5007994;28;20030;-61
2021/12/24 03:28:13;;;;;;;23.17;8.10;;;;;;;8.92;85.67;100491.44;5007931;28;20148;-61
2021/12/24 03:30:38;;;;;;;23.58;7.55;;;;;;;8.89;85.68;100522.19;5005147;28;20452;-60
2021/12/24 03:33:04;;;;;;;22.48;7.03;;;;;;;8.91;85.94;100502.00;4987994;28;20579;-60
2021/12/24 03:35:29;;;;;;;32.47;7.18;;;;;;;8.90;85.60;100473.97;4987094;28;20521;-60
2021/12/24 03:37:54;;;;;;;30.05;8.25;;;;;;;8.89;85.62;100490.66;4987271;28;20499;-60
2021/12/24 03:40:20;;;;;;;23.83;7.32;;;;;;;8.90;85.16;100487.13;4987465;28;20098;-59
2021/12/24 03:42:45;;;;;;;26.02;7.35;;;;;;;8.90;85.44;100495.88;4980233;28;20099;-60
2021/12/24 03:45:29;;;;;;;21.50;6.88;;;;;;;8.88;85.34;100496.84;4983515;28;20019;-60
2021/12/24 03:47:59;;;;;;;25.17;7.15;;;;;;;8.87;85.80;100495.09;4985124;28;20030;-60
2021/12/24 03:50:38;;;;;;;25.20;7.65;;;;;;;8.80;85.53;100495.31;4986991;28;20027;-60
2021/12/24 03:54:55;;;;;;;29.10;10.02;;;;;;;8.84;85.90;100485.56;4999988;28;20105;-60
2021/12/24 03:55:48;;;;;;;24.38;7.95;;;;;;;8.84;85.34;100488.19;5006820;28;20084;-61
2021/12/24 03:58:14;;;;;;;24.83;7.00;;;;;;;8.85;85.29;100492.53;5007283;28;20037;-60
2021/12/24 04:00:39;;;;;;;30.08;6.88;;;;;;;8.85;85.42;100497.78;4997238;28;20034;-61
2021/12/24 04:03:05;;;;;;;25.33;6.90;;;;;;;8.82;85.73;100485.59;4987681;28;20429;-61
2021/12/24 04:05:30;;;;;;;22.30;6.80;;;;;;;8.79;85.80;100490.97;4979866;28;20469;-59
2021/12/24 04:07:55;;;;;;;25.73;6.80;;;;;;;8.78;85.89;100485.75;4975515;28;20122;-59
2021/12/24 04:12:46;;;;;;;24.30;7.30;;;;;;;8.71;85.68;100485.97;4987051;28;20070;-60
2021/12/24 04:15:11;;;;;;;30.75;7.43;;;;;;;8.72;85.99;100490.31;4988325;28;20057;-60
2021/12/24 04:17:39;;;;;;;24.92;6.63;;;;;;;8.69;86.08;100497.41;4986950;28;20032;-61
2021/12/24 04:25:33;;;;;;;31.77;5.70;;;;;;;8.69;85.64;100486.91;4986988;28;20038;-61
2021/12/24 04:28:00;;;;;;;19.30;5.72;;;;;;;8.68;85.51;100498.34;4969581;28;20031;-61
2021/12/24 04:30:32;;;;;;;27.98;6.18;;;;;;;8.68;85.29;100496.56;4986942;28;20034;-61
2021/12/24 04:33:06;;;;;;;23.25;5.50;;;;;;;8.70;85.47;100501.78;4986804;28;20033;-60
2021/12/24 04:35:40;;;;;;;24.00;5.13;;;;;;;8.71;84.92;100495.59;4980312;28;20117;-61
2021/12/24 04:39:00;;;;;;;21.50;5.15;;;;;;;8.69;84.82;100494.78;4970548;28;20147;-61
2021/12/24 04:52:02;;;;;;;30.55;7.00;;;;;;;8.62;84.86;100503.78;4986244;28;20543;-61
2021/12/24 05:02:55;;;;;;;24.48;5.38;;;;;;;8.55;84.85;100489.97;4986973;28;20038;-61
2021/12/24 05:05:24;;;;;;;25.55;5.35;;;;;;;8.56;84.76;100489.94;4982561;28;20027;-61
2021/12/24 05:10:16;;;;;;;19.85;4.95;;;;;;;8.47;84.83;100490.19;4969983;28;20034;-61
2021/12/24 05:12:42;;;;;;;31.38;6.85;;;;;;;8.48;84.98;100491.88;4986798;28;20475;-62
2021/12/24 05:15:09;;;;;;;27.60;5.30;;;;;;;8.50;84.94;100487.47;4984339;28;20119;-60
2021/12/24 05:18:30;;;;;;;23.05;5.70;;;;;;;8.43;84.96;100501.69;4979105;28;20034;-62
2021/12/24 05:23:04;;;;;;;29.25;6.13;;;;;;;8.45;85.00;100503.34;4983299;28;20068;-61
2021/12/24 05:25:29;;;;;;;29.85;5.75;;;;;;;8.42;84.98;100492.94;4992769;28;20481;-61
2021/12/24 05:27:55;;;;;;;28.40;4.95;;;;;;;8.42;84.96;100503.44;4990295;28;20022;-61
2021/12/24 05:30:22;;;;;;;29.73;5.03;;;;;;;8.38;84.93;100499.22;4984284;28;20547;-63
2021/12/24 05:32:47;;;;;;;36.05;5.53;;;;;;;8.37;85.29;100494.00;4989851;28;20112;-61
2021/12/24 05:35:13;;;;;;;29.33;6.00;;;;;;;8.36;85.40;100501.00;4989858;28;20030;-62
2021/12/24 05:37:38;;;;;;;24.15;5.55;;;;;;;8.32;85.03;100500.25;4984937;28;20397;-61
2021/12/24 05:40:04;;;;;;;24.10;5.45;;;;;;;8.33;85.14;100501.97;4989690;28;20100;-61
2021/12/24 05:42:31;;;;;;;30.95;5.95;;;;;;;8.31;85.19;100516.88;4992307;28;20034;-61
2021/12/24 05:45:03;;;;;;;30.65;5.45;;;;;;;8.30;85.38;100506.44;4991334;28;20030;-61
2021/12/24 05:47:28;;;;;;;44.70;7.00;;;;;;;8.33;85.23;100509.84;4988767;28;20536;-62
2021/12/24 05:49:53;;;;;;;23.92;5.07;;;;;;;8.31;85.45;100511.63;4980813;28;20110;-60
2021/12/24 05:52:19;;;;;;;29.20;5.18;;;;;;;8.29;85.50;100510.84;4978556;28;20113;-60
2021/12/24 05:54:44;;;;;;;31.23;5.30;;;;;;;8.24;85.52;100504.00;4989287;28;20432;-61
2021/12/24 05:57:09;;;;;;;23.75;4.82;;;;;;;8.19;85.51;100499.75;4989509;28;20038;-61
2021/12/24 05:59:35;;;;;;;33.47;5.40;;;;;;;8.17;85.88;100511.19;4989090;28;20088;-60
2021/12/24 06:02:00;;;;;;;26.23;5.35;;;;;;;8.17;85.77;100493.69;4989087;28;20034;-60
2021/12/24 06:04:25;;;;;;;32.25;5.32;;;;;;;8.12;85.79;100494.75;4980667;28;20110;-62
2021/12/24 06:06:51;;;;;;;33.03;5.47;;;;;;;8.08;85.89;100494.81;4988915;28;20037;-61
2021/12/24 06:09:16;;;;;;;36.70;5.15;;;;;;;8.07;85.66;100497.50;4988648;28;20046;-61
2021/12/24 06:11:41;;;;;;;25.63;4.72;;;;;;;8.01;85.99;100503.75;4989807;28;20034;-61
2021/12/24 06:14:10;;;;;;;40.78;5.53;;;;;;;7.92;85.99;100491.75;4988757;28;20507;-60
2021/12/24 06:16:35;;;;;;;23.98;5.35;;;;;;;7.87;86.35;100500.66;4970347;28;20117;-61
2021/12/24 06:19:01;;;;;;;31.52;5.32;;;;;;;7.89;86.32;100497.09;4968644;28;20569;-60
2021/12/24 06:21:27;;;;;;;28.10;5.35;;;;;;;7.87;86.39;100513.78;4971436;28;20512;-59
2021/12/24 06:23:52;;;;;;;21.42;5.07;;;;;;;7.86;86.37;100499.81;4989407;28;20058;-60
2021/12/24 06:26:18;;;;;;;28.80;5.82;;;;;;;7.89;86.26;100504.13;4988946;28;20044;-63
2021/12/24 06:28:43;;;;;;;31.02;6.18;;;;;;;7.90;86.35;100505.81;4989203;28;20031;-62
2021/12/24 06:31:08;;;;;;;35.00;7.78;;;;;;;7.83;86.45;100513.88;4971726;28;20062;-61
2021/12/24 06:33:34;;;;;;;29.83;6.43;;;;;;;7.81;86.40;100510.44;4971016;28;20038;-67
2021/12/24 06:35:59;;;;;;;31.67;5.90;;;;;;;7.81;86.34;100496.47;4986826;28;20084;-62
2021/12/24 06:38:25;;;;;;;29.25;8.23;;;;;;;7.80;86.39;100500.84;4989247;28;20397;-61
2021/12/24 06:40:51;;;;;;;31.95;6.43;;;;;;;7.82;86.32;100509.53;4987969;28;20404;-63
2021/12/24 06:43:17;;;;;;;33.03;5.20;;;;;;;7.82;86.17;100514.78;4988253;28;20113;-61
2021/12/24 06:45:42;;;;;;;29.48;5.70;;;;;;;7.77;86.07;100506.16;4989483;28;20072;-60
2021/12/24 06:48:07;;;;;;;39.60;6.15;;;;;;;7.79;85.91;100495.63;4987956;28;20030;-61
2021/12/24 06:50:33;;;;;;;32.03;5.97;;;;;;;7.81;86.12;100501.69;4987448;28;20022;-60
2021/12/24 06:52:59;;;;;;;34.85;5.70;;;;;;;7.79;86.04;100499.13;4988793;28;20038;-60
2021/12/24 06:55:24;;;;;;;26.33;4.72;;;;;;;7.84;85.99;100502.50;4987436;28;20385;-60
2021/12/24 06:57:50;;;;;;;33.33;5.65;;;;;;;7.85;85.42;100513.81;4971264;28;20034;-61
2021/12/24 07:00:19;;;;;;;34.17;5.25;;;;;;;7.89;85.83;100518.06;4987945;28;20037;-60
2021/12/24 07:02:44;;;;;;;27.20;5.15;;;;;;;7.94;85.43;100520.56;4986994;28;20030;-61
2021/12/24 07:05:10;;;;;;;34.42;5.57;;;;;;;7.94;85.58;100526.69;4986982;28;20060;-60
2021/12/24 07:07:35;;;;;;;26.42;5.40;;;;;;;7.92;85.59;100525.88;4986794;28;20037;-59
2021/12/24 07:10:01;;;;;;;31.90;5.07;;;;;;;7.93;85.47;100516.25;4986501;28;20042;-60
2021/12/24 07:12:26;;;;;;;29.42;5.32;;;;;;;7.93;85.62;100517.09;4987495;28;20026;-59
2021/12/24 07:14:51;;;;;;;29.00;5.60;;;;;;;7.92;85.44;100504.88;4986768;28;20050;-59
2021/12/24 07:17:17;;;;;;;31.50;6.80;;;;;;;7.90;85.78;100505.81;4987183;28;20057;-58
2021/12/24 07:19:43;;;;;;;30.02;5.50;;;;;;;7.91;85.59;100502.28;4988030;28;20067;-57
2021/12/24 07:22:08;;;;;;;28.83;5.72;;;;;;;7.91;85.60;100497.03;4969363;28;20088;-58
2021/12/24 07:24:35;;;;;;;36.65;5.43;;;;;;;7.90;85.66;100495.34;4986785;28;20038;-56
2021/12/24 07:27:03;;;;;;;35.92;5.53;;;;;;;7.86;85.76;100501.59;4987371;28;20022;-58
2021/12/24 07:29:29;;;;;;;31.83;5.15;;;;;;;7.84;85.99;100507.75;4987662;28;20366;-60
2021/12/24 07:31:54;;;;;;;30.00;5.97;;;;;;;7.84;85.91;100512.13;4986201;28;20037;-62
2021/12/24 07:34:19;;;;;;;24.38;4.40;;;;;;;7.90;85.53;100505.81;4985611;28;20022;-59
2021/12/24 07:36:45;;;;;;;22.92;4.55;;;;;;;7.88;85.86;100502.38;4985406;28;20362;-59
2021/12/24 07:39:10;;;;;;;40.03;5.15;;;;;;;7.84;85.67;100499.88;4985256;28;20511;-60
2021/12/24 07:41:36;;;;;;;35.40;6.18;;;;;;;7.82;85.78;100506.91;4986381;28;20069;-59
2021/12/24 07:44:02;;;;;;;25.50;4.43;;;;;;;7.78;86.06;100507.03;4984993;28;20011;-59
2021/12/24 07:46:35;;;;;;;21.88;3.92;;;;;;;7.75;86.22;100507.13;4985830;28;20061;-60
2021/12/24 07:49:12;;;;;;;31.40;4.70;;;;;;;7.69;86.20;100495.03;4987191;28;20033;-62
2021/12/24 07:54:21;;;;;;;23.63;4.85;;;;;;;7.58;86.65;100506.69;4985546;28;20401;-61
2021/12/24 07:56:46;;;;;;;31.00;4.50;;;;;;;7.61;86.98;100497.84;4985115;28;20038;-60
2021/12/24 07:59:14;;;;;;;32.03;4.95;;;;;;;7.68;86.57;100501.19;4975907;28;20031;-60
2021/12/24 08:01:39;;;;;;;21.83;3.33;;;;;;;7.71;86.54;100506.34;4986166;28;20342;-61
2021/12/24 08:04:06;;;;;;;23.77;4.05;;;;;;;7.73;86.52;100499.28;4986641;28;20030;-61
2021/12/24 08:06:31;;;;;;;25.13;3.92;;;;;;;7.73;86.64;100508.94;4982300;28;20011;-59
2021/12/24 08:08:57;;;;;;;21.38;2.95;;;;;;;7.73;86.46;100507.16;4970365;28;20042;-61
2021/12/24 08:11:22;;;;;;;26.08;3.58;;;;;;;7.72;86.39;100502.81;4987410;28;20097;-61
2021/12/24 08:13:47;;;;;;;29.35;4.88;;;;;;;7.69;86.26;100511.63;4985974;28;20042;-61
2021/12/24 08:16:14;;;;;;;31.67;3.92;;;;;;;7.67;86.39;100504.69;4987090;28;20030;-60
2021/12/24 08:18:43;;;;;;;25.80;3.80;;;;;;;7.65;86.21;100514.38;4985375;28;20030;-59
2021/12/24 08:21:08;;;;;;;31.53;3.30;;;;;;;7.68;86.24;100507.28;4952260;28;20037;-60
2021/12/24 08:23:33;;;;;;;31.95;4.00;;;;;;;7.67;86.43;100509.94;4985808;28;20034;-63
2021/12/24 08:25:59;;;;;;;28.13;4.65;;;;;;;7.64;86.30;100494.28;4965904;28;20022;-64
2021/12/24 08:28:26;;;;;;;33.53;4.45;;;;;;;7.67;86.39;100499.44;4984031;28;20065;-60
2021/12/24 08:30:51;;;;;;;26.85;4.03;;;;;;;7.80;86.24;100508.69;4985644;28;20388;-61
2021/12/24 08:33:17;;;;;;;21.98;3.55;;;;;;;7.85;86.07;100524.31;4984477;28;20799;-61
2021/12/24 08:35:42;;;;;;;29.75;3.95;;;;;;;7.90;85.71;100521.56;4984093;28;20513;-61
2021/12/24 08:38:08;;;;;;;28.27;3.83;;;;;;;7.94;85.53;100516.19;4984621;28;20030;-62
2021/12/24 08:40:33;;;;;;;24.27;3.72;;;;;;;8.04;85.01;100522.03;4968514;28;20030;-60
2021/12/24 08:43:00;;;;;;;24.98;3.75;;;;;;;8.10;84.82;100518.41;4986166;28;20026;-59
2021/12/24 08:45:25;;;;;;;24.15;3.90;;;;;;;8.16;84.66;100515.56;4986014;28;20035;-61
2021/12/24 08:47:50;;;;;;;24.65;3.67;;;;;;;8.19;84.67;100514.66;4968274;28;20085;-60
2021/12/24 08:50:16;;;;;;;23.20;3.53;;;;;;;8.21;84.61;100518.94;4984121;28;20836;-61
2021/12/24 08:52:46;;;;;;;24.05;4.20;;;;;;;8.21;84.28;100516.31;4968588;28;20027;-60
2021/12/24 08:55:13;;;;;;;24.90;3.88;;;;;;;8.25;84.10;100508.34;4987049;28;20106;-61
2021/12/24 08:57:39;;;;;;;19.88;4.13;;;;;;;8.27;83.76;100509.16;4984887;28;20026;-61
2021/12/24 09:00:06;;;;;;;23.20;4.18;;;;;;;8.28;83.79;100516.97;4986712;28;20065;-61
2021/12/24 09:02:31;;;;;;;33.17;4.90;;;;;;;8.21;84.25;100521.56;4984930;28;20075;-64
2021/12/24 09:04:57;;;;;;;23.92;4.85;;;;;;;8.26;84.42;100518.81;4983914;28;20145;-61
2021/12/24 09:07:22;;;;;;;29.92;4.22;;;;;;;8.31;83.90;100514.25;4984245;28;20231;-62
2021/12/24 09:09:47;;;;;;;24.38;4.50;;;;;;;8.33;83.62;100507.22;4985585;28;20497;-62
2021/12/24 09:12:13;;;;;;;21.58;3.33;;;;;;;8.35;83.70;100512.41;4985470;28;20038;-62
2021/12/24 09:14:38;;;;;;;17.00;3.50;;;;;;;8.37;83.86;100515.00;4968393;28;20453;-61
2021/12/24 09:17:04;;;;;;;28.88;3.80;;;;;;;8.32;84.15;100508.13;4985797;28;20029;-62
2021/12/24 09:19:31;;;;;;;29.35;3.78;;;;;;;8.42;83.47;100494.69;4984911;28;20022;-61
2021/12/24 09:21:57;;;;;;;24.83;3.97;;;;;;;8.51;83.07;100497.06;4985034;28;20030;-61
2021/12/24 09:24:25;;;;;;;18.58;3.10;;;;;;;8.54;83.22;100502.25;4968510;28;20050;-60
2021/12/24 09:26:56;;;;;;;22.20;3.90;;;;;;;8.57;83.02;100504.78;4989848;28;20037;-61
2021/12/24 09:29:21;;;;;;;20.42;3.63;;;;;;;8.55;83.17;100511.84;4989059;28;20137;-60
2021/12/24 09:31:46;;;;;;;25.10;3.88;;;;;;;8.54;83.04;100507.50;4991749;28;20541;-60
2021/12/24 09:34:13;;;;;;;32.75;5.38;;;;;;;8.50;83.34;100503.22;4993728;28;20026;-59
2021/12/24 09:36:38;;;;;;;32.30;4.40;;;;;;;8.53;82.79;100504.88;4971928;28;20034;-59
2021/12/24 09:39:04;;;;;;;21.73;4.07;;;;;;;8.58;82.91;100503.03;4984217;28;20030;-60
2021/12/24 09:41:31;;;;;;;22.27;3.88;;;;;;;8.58;82.81;100498.63;4982514;28;20102;-60
2021/12/24 09:43:58;;;;;;;32.72;3.83;;;;;;;8.56;82.80;100504.81;4984166;28;20023;-61
2021/12/24 09:46:25;;;;;;;19.40;3.60;;;;;;;8.58;82.52;100503.03;4985299;28;20385;-61
2021/12/24 09:48:50;;;;;;;24.52;3.40;;;;;;;8.51;82.92;100502.31;4979772;28;20015;-62
2021/12/24 09:51:16;;;;;;;24.77;4.38;;;;;;;8.47;83.13;100505.94;4987293;28;20080;-62
2021/12/24 09:53:41;;;;;;;24.08;5.05;;;;;;;8.48;83.21;100510.28;4967227;28;20080;-63
2021/12/24 09:56:07;;;;;;;23.92;3.78;;;;;;;8.42;83.21;100502.56;4984240;28;20454;-61
2021/12/24 09:58:33;;;;;;;19.85;4.35;;;;;;;8.40;83.62;100507.03;4967970;28;20109;-61
2021/12/24 10:00:58;;;;;;;21.30;4.43;;;;;;;8.40;83.55;100507.88;4985039;28;20042;-64
2021/12/24 10:03:41;;;;;;;27.80;6.38;;;;;;;8.38;83.49;100508.84;4985370;28;20049;-61
2021/12/24 10:06:06;;;;;;;31.20;4.72;;;;;;;8.36;83.61;100501.00;4984490;28;20540;-62
2021/12/24 10:08:32;;;;;;;25.40;6.25;;;;;;;8.34;83.86;100500.22;4990060;28;20231;-62
2021/12/24 10:11:03;;;;;;;21.45;4.43;;;;;;;8.28;84.01;100509.09;4986981;28;20068;-60
2021/12/24 10:13:43;;;;;;;20.48;4.30;;;;;;;8.30;84.05;100501.19;4987927;28;20025;-60
2021/12/24 10:16:17;;;;;;;31.83;5.18;;;;;;;8.27;83.89;100507.41;4991752;28;20026;-60
2021/12/24 10:18:48;;;;;;;25.73;5.30;;;;;;;8.29;84.10;100513.47;4988053;28;20030;-60
2021/12/24 10:21:13;;;;;;;20.92;5.63;;;;;;;8.34;83.89;100510.72;4987114;28;20026;-59
2021/12/24 10:23:39;;;;;;;26.15;4.80;;;;;;;8.35;83.62;100504.53;4988480;28;20039;-60
2021/12/24 10:26:26;;;;;;;27.67;5.28;;;;;;;8.38;83.64;100504.44;4988526;28;20030;-63
2021/12/24 10:29:06;;;;;;;27.80;4.40;;;;;;;8.39;83.42;100505.28;4987788;28;20038;-61
2021/12/24 10:31:43;;;;;;;25.30;3.92;;;;;;;8.41;83.50;100500.88;4989063;28;20022;-60
2021/12/24 10:34:14;;;;;;;26.58;4.53;;;;;;;8.41;83.10;100507.00;4987434;28;20026;-65
2021/12/24 10:37:09;;;;;;;21.98;4.22;;;;;;;8.42;83.16;100505.19;4987937;28;20485;-59
2021/12/24 10:39:48;;;;;;;24.13;4.55;;;;;;;8.43;82.97;100496.44;4986893;28;20504;-60
2021/12/24 10:42:27;;;;;;;33.83;5.03;;;;;;;8.42;83.20;100498.19;4995441;28;20045;-63
2021/12/24 10:44:54;;;;;;;35.03;7.13;;;;;;;8.44;83.25;100504.28;5007912;28;20026;-61
2021/12/24 10:47:26;;;;;;;24.05;5.60;;;;;;;8.44;82.81;100506.03;5007785;28;20041;-58
2021/12/24 10:49:58;;;;;;;21.52;4.50;;;;;;;8.44;83.20;100500.78;4993627;28;20109;-61
2021/12/24 10:52:41;;;;;;;26.35;4.55;;;;;;;8.42;83.07;100505.19;4988794;28;20027;-66
2021/12/24 10:55:10;;;;;;;28.10;4.85;;;;;;;8.38;83.33;100503.59;4987522;28;20109;-61
2021/12/24 10:57:37;;;;;;;25.48;4.68;;;;;;;8.40;83.61;100505.25;4968874;28;20030;-61
2021/12/24 11:00:05;;;;;;;21.85;4.88;;;;;;;8.46;83.09;100496.34;4970342;28;20025;-61
2021/12/24 11:02:34;;;;;;;20.00;4.55;;;;;;;8.43;83.43;100502.53;4987409;28;20066;-62
2021/12/24 11:05:01;;;;;;;16.80;4.32;;;;;;;8.44;83.58;100496.41;5002935;28;20029;-59
2021/12/24 11:07:37;;;;;;;25.77;5.30;;;;;;;8.49;83.43;100509.34;5008330;28;20475;-62
2021/12/24 11:10:13;;;;;;;20.63;4.05;;;;;;;8.52;83.09;100500.56;5006355;28;20060;-60
2021/12/24 11:12:50;;;;;;;23.63;4.45;;;;;;;8.59;82.59;100495.09;4988970;28;20049;-60
2021/12/24 11:15:32;;;;;;;21.80;4.60;;;;;;;8.70;82.12;100496.53;4970341;28;20019;-60
2021/12/24 11:18:04;;;;;;;20.10;4.25;;;;;;;8.73;81.80;100501.66;4986823;28;20026;-66
2021/12/24 11:20:30;;;;;;;26.73;4.53;;;;;;;8.78;81.78;100502.38;4986212;28;20035;-62
2021/12/24 11:23:05;;;;;;;32.97;4.60;;;;;;;8.75;81.79;100504.25;4985930;28;20033;-63
2021/12/24 11:25:37;;;;;;;36.53;6.57;;;;;;;8.77;81.80;100498.03;4987184;28;20055;-68
2021/12/24 11:28:03;;;;;;;22.40;4.75;;;;;;;8.81;81.62;100502.28;4987355;28;20473;-64
2021/12/24 11:30:30;;;;;;;31.98;4.35;;;;;;;8.79;81.37;100492.75;4985926;28;20026;-66
2021/12/24 11:32:55;;;;;;;23.27;4.32;;;;;;;8.77;81.58;100508.56;4980517;28;20487;-59
2021/12/24 11:35:21;;;;;;;31.60;4.20;;;;;;;8.77;81.02;100505.94;4977029;28;20149;-61
2021/12/24 11:37:48;;;;;;;18.05;3.60;;;;;;;8.70;81.43;100491.28;4970628;28;20022;-59
2021/12/24 11:40:16;;;;;;;25.50;4.18;;;;;;;8.76;81.39;100493.69;4987701;28;20031;-58
2021/12/24 11:42:43;;;;;;;28.85;4.28;;;;;;;8.81;81.32;100499.66;4987300;28;20371;-61
2021/12/24 11:45:09;;;;;;;27.88;4.45;;;;;;;8.75;81.59;100489.34;4985807;28;20038;-67
2021/12/24 11:47:35;;;;;;;27.83;4.88;;;;;;;8.80;81.70;100481.31;4989507;28;20030;-60
2021/12/24 11:50:01;;;;;;;18.23;4.70;;;;;;;8.80;81.25;100490.06;4985466;28;20393;-61
2021/12/24 11:52:27;;;;;;;21.77;5.95;;;;;;;8.81;81.20;100497.03;4970471;28;20030;-62
2021/12/24 11:54:57;;;;;;;22.65;3.80;;;;;;;8.70;81.53;100483.41;4986276;28;20027;-63
2021/12/24 11:57:23;;;;;;;32.33;4.50;;;;;;;8.71;81.80;100492.97;4985934;28;20039;-62
2021/12/24 11:59:49;;;;;;;30.52;4.65;;;;;;;8.67;81.86;100491.38;4952519;28;20019;-62
2021/12/24 12:02:33;;;;;;;23.05;4.07;;;;;;;8.68;81.77;100490.44;4985905;28;20141;-61
2021/12/24 12:05:23;;;;;;;22.35;4.03;;;;;;;8.70;81.60;100491.28;4981629;28;20153;-62
2021/12/24 12:07:50;;;;;;;22.55;4.20;;;;;;;8.65;81.67;100478.28;4986549;28;20049;-61
2021/12/24 12:10:54;;;;;;;24.58;4.32;;;;;;;8.67;82.01;100481.69;4977006;28;20026;-62
2021/12/24 12:13:38;;;;;;;26.08;4.40;;;;;;;8.69;81.84;100474.66;4980314;28;20051;-63
2021/12/24 12:16:04;;;;;;;31.83;4.95;;;;;;;8.64;81.86;100486.22;4979755;28;20044;-61
2021/12/24 12:18:33;;;;;;;23.83;4.15;;;;;;;8.59;81.92;100495.09;4956064;28;20031;-63
2021/12/24 12:21:19;;;;;;;22.87;4.23;;;;;;;8.56;82.04;100489.94;4958765;28;20093;-62
2021/12/24 12:26:44;;;;;;;25.33;4.45;;;;;;;8.55;82.02;100477.69;4977541;28;20446;-61
2021/12/24 12:29:29;;;;;;;27.30;3.88;;;;;;;8.65;82.08;100482.66;4988790;28;20493;-66
2021/12/24 12:32:25;;;;;;;26.75;3.72;;;;;;;8.68;82.16;100493.06;4983103;28;20033;-63
2021/12/24 12:34:57;;;;;;;26.52;5.82;;;;;;;8.68;82.27;100486.06;4984353;28;20073;-61
2021/12/24 12:37:32;;;;;;;23.48;4.00;;;;;;;8.66;82.02;100494.88;4986000;28;20050;-64
2021/12/24 12:40:13;;;;;;;21.73;4.72;;;;;;;8.68;82.03;100493.94;4965182;28;20595;-64
2021/12/24 12:43:09;;;;;;;27.40;5.32;;;;;;;8.68;81.84;100490.44;4984661;28;20040;-66
2021/12/24 12:45:38;;;;;;;21.83;4.22;;;;;;;8.65;82.14;100493.16;4983050;28;20030;-65
2021/12/24 12:48:05;;;;;;;21.02;3.90;;;;;;;8.67;81.99;100483.50;4984301;28;20113;-67
2021/12/24 12:50:32;;;;;;;25.10;3.90;;;;;;;8.65;82.14;100483.53;4986478;28;20432;-67
2021/12/24 12:53:23;;;;;;;27.40;5.25;;;;;;;8.66;82.40;100471.25;4984940;28;20109;-63
2021/12/24 12:56:01;;;;;;;19.95;4.60;;;;;;;8.64;82.20;100475.72;4986298;28;20018;-63
2021/12/24 12:58:26;;;;;;;23.50;3.97;;;;;;;8.76;81.68;100469.19;4968112;28;20034;-64
2021/12/24 13:01:06;;;;;;;20.85;3.55;;;;;;;8.77;81.33;100466.53;4984701;28;20030;-62